createdAt,value
2023-01-04T00:00:12.355Z,100599.53
2023-01-04T00:03:18.994Z,100601.84
2023-01-04T00:06:26.183Z,100607.33
2023-01-04T00:09:32.804Z,100612.31
2023-01-04T00:12:39.325Z,100610.35
2023-01-04T00:15:44.446Z,100615.97
2023-01-04T00:18:52.425Z,100621.30
2023-01-04T00:21:57.828Z,100614.08
2023-01-04T00:25:04.196Z,100617.03
2023-01-04T00:28:10.067Z,100617.08
2023-01-04T00:31:23.663Z,100618.88
2023-01-04T00:34:30.356Z,100614.36
2023-01-04T00:37:35.449Z,100620.97
2023-01-04T00:40:40.956Z,100618.88
2023-01-04T00:43:46.598Z,100612.77
2023-01-04T00:46:51.841Z,100620.06
2023-01-04T00:49:57.459Z,100607.58
2023-01-04T00:53:05.814Z,100611.11
2023-01-04T00:56:15.670Z,100616.19
2023-01-04T00:59:20.515Z,100618.23
2023-01-04T01:02:26.138Z,100615.50
2023-01-04T01:05:32.870Z,100617.42
2023-01-04T01:08:39.167Z,100616.78
2023-01-04T01:11:46.319Z,100618.56
2023-01-04T01:14:55.970Z,100620.17
2023-01-04T01:17:59.998Z,100608.94
2023-01-04T01:21:05.445Z,100612.28
2023-01-04T01:24:10.870Z,100615.56
2023-01-04T01:27:16.463Z,100607.77
2023-01-04T01:30:23.229Z,100611.00
2023-01-04T01:33:28.449Z,100609.75
2023-01-04T01:36:34.732Z,100609.66
2023-01-04T01:39:40.797Z,100610.72
2023-01-04T01:42:46.446Z,100601.77
2023-01-04T01:45:52.751Z,100603.83
2023-01-04T01:48:58.924Z,100603.87
2023-01-04T01:52:03.977Z,100602.25
2023-01-04T01:55:13.820Z,100597.40
2023-01-04T01:58:20.600Z,100597.78
2023-01-04T02:01:25.580Z,100596.77
2023-01-04T02:04:32.016Z,100597.31
2023-01-04T02:07:39.544Z,100600.93
2023-01-04T02:10:44.903Z,100605.85
2023-01-04T02:14:08.780Z,100597.56
2023-01-04T02:17:49.431Z,100605.36
2023-01-04T02:21:21.018Z,100599.60
2023-01-04T02:24:49.803Z,100600.23
2023-01-04T02:28:03.535Z,100596.63
2023-01-04T02:31:39.085Z,100601.70
2023-01-04T02:35:21.433Z,100596.13
2023-01-04T02:38:45.218Z,100593.50
2023-01-04T02:42:16.249Z,100596.72
2023-01-04T02:45:22.276Z,100599.74
2023-01-04T02:48:45.206Z,100594.29
2023-01-04T02:51:52.513Z,100596.16
2023-01-04T02:54:59.283Z,100604.67
2023-01-04T02:58:18.867Z,100599.41
2023-01-04T03:02:09.526Z,100599.97
2023-01-04T03:05:47.393Z,100606.16
2023-01-04T03:09:05.359Z,100603.26
2023-01-04T03:12:32.734Z,100599.47
2023-01-04T03:15:43.001Z,100601.45
2023-01-04T03:18:52.117Z,100611.36
2023-01-04T03:21:58.921Z,100610.19
2023-01-04T03:25:21.935Z,100610.73
2023-01-04T03:28:46.221Z,100618.20
2023-01-04T03:32:18.994Z,100621.75
2023-01-04T03:35:34.753Z,100623.01
2023-01-04T03:39:25.226Z,100627.56
2023-01-04T03:43:17.068Z,100635.03
2023-01-04T03:46:41.631Z,100630.23
2023-01-04T03:49:57.088Z,100631.56
2023-01-04T03:53:02.253Z,100637.70
2023-01-04T03:56:08.141Z,100634.83
2023-01-04T03:59:13.764Z,100632.52
2023-01-04T04:02:20.687Z,100635.69
2023-01-04T04:05:50.819Z,100631.45
2023-01-04T04:08:55.836Z,100633.64
2023-01-04T04:12:00.847Z,100644.40
2023-01-04T04:15:06.918Z,100637.88
2023-01-04T04:18:14.332Z,100639.08
2023-01-04T04:21:20.058Z,100638.75
2023-01-04T04:24:35.623Z,100638.92
2023-01-04T04:27:40.261Z,100640.70
2023-01-04T04:30:47.714Z,100632.88
2023-01-04T04:33:54.162Z,100631.79
2023-01-04T04:37:00.209Z,100635.95
2023-01-04T04:40:05.565Z,100639.95
2023-01-04T04:43:11.926Z,100635.30
2023-01-04T04:46:17.283Z,100632.15
2023-01-04T04:49:22.584Z,100635.03
2023-01-04T04:52:27.756Z,100638.30
2023-01-04T04:55:33.593Z,100634.45
2023-01-04T04:58:40.241Z,100628.44
2023-01-04T05:01:45.904Z,100628.23
2023-01-04T05:04:51.997Z,100631.11
2023-01-04T05:07:57.765Z,100627.80
2023-01-04T05:11:03.292Z,100634.38
2023-01-04T05:14:08.801Z,100627.70
2023-01-04T05:17:13.593Z,100620.53
2023-01-04T05:20:20.443Z,100632.94
2023-01-04T05:23:26.886Z,100625.61
2023-01-04T05:26:32.127Z,100637.08
2023-01-04T05:29:55.018Z,100634.78
2023-01-04T05:33:00.530Z,100632.12
2023-01-04T05:36:05.961Z,100645.20
2023-01-04T05:39:11.094Z,100646.09
2023-01-04T05:42:35.166Z,100646.14
2023-01-04T05:45:40.154Z,100647.71
2023-01-04T05:48:45.496Z,100654.73
2023-01-04T05:51:51.598Z,100654.40
2023-01-04T05:54:57.797Z,100657.95
2023-01-04T05:58:03.111Z,100658.56
2023-01-04T06:01:10.053Z,100666.19
2023-01-04T06:04:15.603Z,100663.98
2023-01-04T06:07:23.601Z,100663.28
2023-01-04T06:10:29.639Z,100664.73
2023-01-04T06:13:36.368Z,100670.47
2023-01-04T06:16:41.374Z,100675.20
2023-01-04T06:19:47.528Z,100677.85
2023-01-04T06:22:53.967Z,100693.98
2023-01-04T06:26:01.097Z,100691.86
2023-01-04T06:29:06.916Z,100691.72
2023-01-04T06:32:12.863Z,100685.44
2023-01-04T06:35:18.304Z,100684.98
2023-01-04T06:38:24.123Z,100695.34
2023-01-04T06:41:29.743Z,100692.97
2023-01-04T06:44:35.627Z,100698.25
2023-01-04T06:47:41.355Z,100707.15
2023-01-04T06:50:47.580Z,100706.30
2023-01-04T06:53:54.317Z,100714.94
2023-01-04T06:57:00.114Z,100711.02
2023-01-04T07:00:06.654Z,100709.30
2023-01-04T07:03:16.018Z,100713.72
2023-01-04T07:06:21.255Z,100716.98
2023-01-04T07:09:27.512Z,100718.89
2023-01-04T07:12:33.376Z,100734.77
2023-01-04T07:15:40.892Z,100733.62
2023-01-04T07:18:47.186Z,100730.72
2023-01-04T07:21:55.433Z,100730.16
2023-01-04T07:25:02.331Z,100738.28
2023-01-04T07:28:08.273Z,100744.08
2023-01-04T07:31:15.236Z,100738.23
2023-01-04T07:34:21.807Z,100739.27
2023-01-04T07:37:27.795Z,100743.97
2023-01-04T07:40:33.223Z,100739.95
2023-01-04T07:43:38.391Z,100742.17
2023-01-04T07:46:43.847Z,100738.56
2023-01-04T07:49:49.761Z,100743.52
2023-01-04T07:52:55.780Z,100741.17
2023-01-04T07:56:00.550Z,100741.91
2023-01-04T07:59:06.167Z,100744.27
2023-01-04T08:02:11.568Z,100753.18
2023-01-04T08:05:17.289Z,100745.51
2023-01-04T08:08:22.202Z,100739.58
2023-01-04T08:11:31.851Z,100737.11
2023-01-04T08:14:37.557Z,100746.91
2023-01-04T08:17:42.922Z,100749.13
2023-01-04T08:20:52.117Z,100748.17
2023-01-04T08:23:55.921Z,100749.86
2023-01-04T08:27:03.849Z,100749.41
2023-01-04T08:30:10.298Z,100749.46
2023-01-04T08:33:16.343Z,100746.19
2023-01-04T08:36:33.030Z,100743.07
2023-01-04T08:39:45.319Z,100739.08
2023-01-04T08:42:48.334Z,100732.88
2023-01-04T08:45:53.611Z,100730.66
2023-01-04T08:48:58.833Z,100734.03
2023-01-04T08:52:04.466Z,100730.66
2023-01-04T08:55:13.920Z,100730.25
2023-01-04T08:58:19.117Z,100719.53
2023-01-04T09:01:25.840Z,100730.33
2023-01-04T09:04:30.710Z,100722.03
2023-01-04T09:07:36.748Z,100723.04
2023-01-04T09:10:42.808Z,100729.91
2023-01-04T09:13:49.634Z,100722.03
2023-01-04T09:16:55.677Z,100717.72
2023-01-04T09:20:01.533Z,100721.17
2023-01-04T09:23:12.889Z,100719.66
2023-01-04T09:26:36.744Z,100711.58
2023-01-04T09:29:42.127Z,100710.06
2023-01-04T09:32:49.920Z,100711.48
2023-01-04T09:35:58.748Z,100704.20
2023-01-04T09:39:04.071Z,100706.98
2023-01-04T09:42:15.079Z,100709.97
2023-01-04T09:45:40.193Z,100703.73
2023-01-04T09:48:48.650Z,100698.63
2023-01-04T09:51:55.660Z,100691.67
2023-01-04T09:55:39.455Z,100696.30
2023-01-04T09:58:38.979Z,100705.09
2023-01-04T10:02:13.072Z,100695.13
2023-01-04T10:05:19.745Z,100685.83
2023-01-04T10:08:32.741Z,100690.68
2023-01-04T10:12:02.373Z,100681.53
2023-01-04T10:15:44.029Z,100681.58
2023-01-04T10:19:52.205Z,100677.09
2023-01-04T10:22:16.238Z,100687.98
2023-01-04T10:25:44.775Z,100698.75
2023-01-04T10:29:18.790Z,100684.21
2023-01-04T10:32:44.165Z,100674.70
2023-01-04T10:35:50.931Z,100674.91
2023-01-04T10:38:58.049Z,100672.73
2023-01-04T10:42:33.577Z,100670.22
2023-01-04T10:45:46.471Z,100663.31
2023-01-04T10:49:05.370Z,100670.70
2023-01-04T10:52:30.870Z,100660.92
2023-01-04T10:56:26.244Z,100663.65
2023-01-04T10:59:08.061Z,100668.99
2023-01-04T11:02:18.208Z,100672.66
2023-01-04T11:05:44.387Z,100655.58
2023-01-04T11:08:59.301Z,100655.58
2023-01-04T11:12:04.322Z,100659.75
2023-01-04T11:15:10.712Z,100660.55
2023-01-04T11:18:16.936Z,100670.13
2023-01-04T11:21:25.282Z,100655.50
2023-01-04T11:24:32.909Z,100673.02
2023-01-04T11:27:40.470Z,100673.71
2023-01-04T11:31:02.677Z,100666.49
2023-01-04T11:34:10.931Z,100679.41
2023-01-04T11:37:16.318Z,100664.78
2023-01-04T11:40:37.037Z,100673.52
2023-01-04T11:43:44.311Z,100655.23
2023-01-04T11:46:49.683Z,100644.37
2023-01-04T11:49:55.407Z,100646.52
2023-01-04T11:53:02.124Z,100651.05
2023-01-04T11:56:23.515Z,100648.80
2023-01-04T11:59:31.817Z,100649.88
2023-01-04T12:03:00.761Z,100640.83
2023-01-04T12:05:46.918Z,100651.52
2023-01-04T12:08:52.212Z,100663.05
2023-01-04T12:12:12.387Z,100658.93
2023-01-04T12:15:21.516Z,100661.84
2023-01-04T12:18:33.311Z,100644.05
2023-01-04T12:21:40.720Z,100678.23
2023-01-04T12:24:47.732Z,100689.54
2023-01-04T12:27:54.421Z,100698.59
2023-01-04T12:30:59.440Z,100692.26
2023-01-04T12:34:06.293Z,100681.96
2023-01-04T12:37:16.924Z,100698.32
2023-01-04T12:41:03.453Z,100701.42
2023-01-04T12:44:08.905Z,100708.27
2023-01-04T12:47:34.286Z,100703.42
2023-01-04T12:50:47.836Z,100716.74
2023-01-04T12:54:04.540Z,100713.17
2023-01-04T12:57:38.688Z,100717.61
2023-01-04T13:01:11.369Z,100713.80
2023-01-04T13:04:36.444Z,100721.25
2023-01-04T13:07:48.131Z,100719.66
2023-01-04T13:11:04.615Z,100733.57
2023-01-04T13:14:24.949Z,100725.76
2023-01-04T13:17:37.316Z,100733.83
2023-01-04T13:20:42.500Z,100737.39
2023-01-04T13:23:47.750Z,100729.31
2023-01-04T13:26:56.612Z,100718.13
2023-01-04T13:30:02.797Z,100719.73
2023-01-04T13:33:27.360Z,100713.27
2023-01-04T13:36:26.983Z,100721.36
2023-01-04T13:39:35.464Z,100716.45
2023-01-04T13:42:47.480Z,100721.98
2023-01-04T13:46:13.500Z,100732.41
2023-01-04T13:49:19.239Z,100738.49
2023-01-04T13:52:58.395Z,100729.19
2023-01-04T13:55:51.753Z,100721.67
2023-01-04T13:58:59.054Z,100725.13
2023-01-04T14:02:03.898Z,100716.75
2023-01-04T14:05:10.241Z,100712.47
2023-01-04T14:08:15.913Z,100713.56
2023-01-04T14:11:46.766Z,100709.95
2023-01-04T14:15:10.348Z,100720.12
2023-01-04T14:18:16.381Z,100723.69
2023-01-04T14:21:31.748Z,100718.83
2023-01-04T14:27:58.827Z,100728.16
2023-01-04T14:31:16.134Z,100721.75
2023-01-04T14:34:20.936Z,100731.87
2023-01-04T14:37:26.497Z,100722.30
2023-01-04T14:40:40.497Z,100734.08
2023-01-04T14:43:51.316Z,100732.41
2023-01-04T14:46:57.631Z,100747.83
2023-01-04T14:50:04.052Z,100753.18
2023-01-04T14:53:09.715Z,100741.73
2023-01-04T14:56:15.334Z,100756.20
2023-01-04T14:59:22.752Z,100759.27
2023-01-04T15:02:29.178Z,100756.70
2023-01-04T15:05:38.047Z,100759.72
2023-01-04T15:08:41.685Z,100753.25
2023-01-04T15:11:47.099Z,100761.17
2023-01-04T15:14:53.628Z,100756.95
2023-01-04T15:17:59.656Z,100757.84
2023-01-04T15:21:05.100Z,100761.16
2023-01-04T15:24:11.218Z,100769.31
2023-01-04T15:27:16.870Z,100766.96
2023-01-04T15:30:24.926Z,100755.73
2023-01-04T15:33:30.375Z,100768.09
2023-01-04T15:36:36.463Z,100769.20
2023-01-04T15:39:43.614Z,100776.34
2023-01-04T15:43:07.867Z,100777.23
2023-01-04T15:46:13.586Z,100782.09
2023-01-04T15:49:18.845Z,100783.38
2023-01-04T15:52:25.718Z,100771.92
2023-01-04T15:55:36.166Z,100790.28
2023-01-04T15:58:39.480Z,100780.79
2023-01-04T16:01:45.678Z,100777.72
2023-01-04T16:04:54.241Z,100778.71
2023-01-04T16:08:02.260Z,100779.32
2023-01-04T16:11:07.994Z,100773.77
2023-01-04T16:14:13.655Z,100779.94
2023-01-04T16:17:18.995Z,100785.52
2023-01-04T16:20:24.730Z,100788.31
2023-01-04T16:23:29.851Z,100795.45
2023-01-04T16:26:36.319Z,100778.83
2023-01-04T16:29:41.586Z,100779.05
2023-01-04T16:32:49.756Z,100796.20
2023-01-04T16:35:57.648Z,100784.61
2023-01-04T16:39:03.804Z,100791.75
2023-01-04T16:42:11.133Z,100789.25
2023-01-04T16:45:17.318Z,100782.64
2023-01-04T16:48:22.591Z,100787.45
2023-01-04T16:51:27.897Z,100782.64
2023-01-04T16:54:54.191Z,100784.25
2023-01-04T16:58:00.149Z,100775.75
2023-01-04T17:01:06.750Z,100787.90
2023-01-04T17:04:17.486Z,100787.92
2023-01-04T17:07:23.296Z,100787.90
2023-01-04T17:10:29.822Z,100797.01
2023-01-04T17:13:35.293Z,100792.61
2023-01-04T17:16:41.065Z,100790.14
2023-01-04T17:19:46.500Z,100794.02
2023-01-04T17:22:52.265Z,100797.00
2023-01-04T17:25:57.999Z,100797.13
2023-01-04T17:29:03.764Z,100803.02
2023-01-04T17:32:09.215Z,100797.19
2023-01-04T17:35:16.903Z,100791.88
2023-01-04T17:38:22.416Z,100795.83
2023-01-04T17:41:33.768Z,100788.59
2023-01-04T17:44:39.624Z,100791.86
2023-01-04T17:47:47.072Z,100784.36
2023-01-04T17:50:52.794Z,100786.85
2023-01-04T17:53:59.585Z,100784.98
2023-01-04T17:57:05.260Z,100793.27
2023-01-04T18:00:10.268Z,100787.50
2023-01-04T18:03:15.350Z,100795.52
2023-01-04T18:06:28.102Z,100790.41
2023-01-04T18:09:28.853Z,100786.21
2023-01-04T18:12:37.020Z,100787.92
2023-01-04T18:15:54.990Z,100784.22
2023-01-04T18:18:51.177Z,100783.05
2023-01-04T18:21:59.032Z,100780.30
2023-01-04T18:25:04.734Z,100784.86
2023-01-04T18:28:09.855Z,100783.94
2023-01-04T18:31:17.419Z,100782.03
2023-01-04T18:34:25.735Z,100781.67
2023-01-04T18:37:31.482Z,100790.44
2023-01-04T18:40:38.098Z,100785.02
2023-01-04T18:44:05.306Z,100790.10
2023-01-04T18:46:52.337Z,100787.01
2023-01-04T18:49:57.333Z,100793.17
2023-01-04T18:53:03.167Z,100778.63
2023-01-04T18:56:08.908Z,100773.75
2023-01-04T18:59:14.871Z,100765.25
2023-01-04T19:02:20.471Z,100766.23
2023-01-04T19:05:26.390Z,100766.67
2023-01-04T19:08:32.005Z,100775.42
2023-01-04T19:11:37.847Z,100777.02
2023-01-04T19:14:43.776Z,100770.38
2023-01-04T19:17:50.165Z,100766.55
2023-01-04T19:20:56.948Z,100759.05
2023-01-04T19:24:02.346Z,100758.83
2023-01-04T19:27:10.326Z,100763.50
2023-01-04T19:30:16.474Z,100758.83
2023-01-04T19:33:22.271Z,100758.57
2023-01-04T19:36:31.069Z,100757.09
2023-01-04T19:39:37.098Z,100766.93
2023-01-04T19:42:42.439Z,100769.90
2023-01-04T19:45:54.282Z,100759.44
2023-01-04T19:49:00.840Z,100756.96
2023-01-04T19:52:06.722Z,100749.23
2023-01-04T19:55:13.652Z,100750.56
2023-01-04T19:58:19.455Z,100750.30
2023-01-04T20:01:32.156Z,100745.16
2023-01-04T20:04:38.947Z,100745.64
2023-01-04T20:07:44.466Z,100732.11
2023-01-04T20:10:50.245Z,100741.47
2023-01-04T20:13:55.949Z,100736.91
2023-01-04T20:17:01.674Z,100730.38
2023-01-04T20:20:07.669Z,100726.19
2023-01-04T20:23:14.576Z,100723.12
2023-01-04T20:26:27.459Z,100727.05
2023-01-04T20:29:32.910Z,100721.01
2023-01-04T20:32:39.082Z,100723.58
2023-01-04T20:35:44.844Z,100729.11
2023-01-04T20:38:55.277Z,100727.14
2023-01-04T20:42:18.948Z,100730.09
2023-01-04T20:45:23.874Z,100717.53
2023-01-04T20:48:31.342Z,100718.52
2023-01-04T20:51:38.975Z,100719.06
2023-01-04T20:54:44.556Z,100725.56
2023-01-04T20:57:49.699Z,100727.05
2023-01-04T21:00:55.653Z,100723.12
2023-01-04T21:04:01.235Z,100723.12
2023-01-04T21:07:08.278Z,100727.31
2023-01-04T21:10:13.750Z,100724.24
2023-01-04T21:13:18.887Z,100722.27
2023-01-04T21:16:25.722Z,100725.33
2023-01-04T21:19:31.785Z,100729.39
2023-01-04T21:22:37.367Z,100721.04
2023-01-04T21:25:43.851Z,100718.45
2023-01-04T21:28:50.356Z,100717.00
2023-01-04T21:31:56.132Z,100719.59
2023-01-04T21:35:01.154Z,100715.03
2023-01-04T21:38:06.732Z,100713.05
2023-01-04T21:41:12.543Z,100710.45
2023-01-04T21:44:18.052Z,100711.09
2023-01-04T21:47:23.711Z,100717.47
2023-01-04T21:50:29.600Z,100717.34
2023-01-04T21:53:35.356Z,100711.30
2023-01-04T21:56:40.498Z,100711.39
2023-01-04T21:59:46.611Z,100697.48
2023-01-04T22:02:53.724Z,100695.61
2023-01-04T22:05:59.937Z,100694.61
2023-01-04T22:09:07.090Z,100700.03
2023-01-04T22:12:12.701Z,100703.85
2023-01-04T22:15:18.264Z,100696.31
2023-01-04T22:18:25.373Z,100695.84
2023-01-04T22:21:34.420Z,100680.00
2023-01-04T22:24:40.519Z,100682.61
2023-01-04T22:27:45.852Z,100678.89
2023-01-04T22:30:53.897Z,100664.02
2023-01-04T22:33:59.912Z,100667.86
2023-01-04T22:37:06.060Z,100670.72
2023-01-04T22:40:11.585Z,100670.52
2023-01-04T22:43:17.575Z,100671.65
2023-01-04T22:46:27.629Z,100669.22
2023-01-04T22:49:33.068Z,100667.81
2023-01-04T22:52:38.083Z,100675.25
2023-01-04T22:56:17.878Z,100670.23
2023-01-04T22:58:54.189Z,100660.89
2023-01-04T23:01:59.470Z,100655.36
2023-01-04T23:05:04.626Z,100648.44
2023-01-04T23:08:11.461Z,100656.86
2023-01-04T23:11:24.575Z,100646.98
2023-01-04T23:14:31.508Z,100636.85
2023-01-04T23:17:36.314Z,100636.05
2023-01-04T23:20:42.191Z,100631.64
2023-01-04T23:23:47.499Z,100633.14
2023-01-04T23:26:54.047Z,100637.66
2023-01-04T23:29:59.809Z,100629.86
2023-01-04T23:33:06.323Z,100635.42
2023-01-04T23:36:12.402Z,100642.09
2023-01-04T23:39:21.611Z,100628.55
2023-01-04T23:42:26.988Z,100638.31
2023-01-04T23:45:32.446Z,100623.24
2023-01-04T23:48:38.450Z,100627.61
2023-01-04T23:51:44.635Z,100630.72
2023-01-04T23:54:50.388Z,100639.14
2023-01-04T23:57:57.146Z,100626.30
